sensor_id;sensor_type;location;lat;lon;timestamp;temperature;humidity
18091;DHT22;9172;49.948;9.208;2022-12-07T00:02:32;3.80;99.90
18091;DHT22;9172;49.948;9.208;2022-12-07T00:05:02;3.90;99.90
18091;DHT22;9172;49.948;9.208;2022-12-07T00:07:32;3.90;99.90
18091;DHT22;9172;49.948;9.208;2022-12-07T00:10:06;3.90;99.90
18091;DHT22;9172;49.948;9.208;2022-12-07T00:12:36;3.90;99.90
18091;DHT22;9172;49.948;9.208;2022-12-07T00:15:08;4.00;99.90
18091;DHT22;9172;49.948;9.208;2022-12-07T00:17:37;3.90;99.90
18091;DHT22;9172;49.948;9.208;2022-12-07T00:20:08;3.80;99.90
18091;DHT22;9172;49.948;9.208;2022-12-07T00:22:36;3.80;99.90
18091;DHT22;9172;49.948;9.208;2022-12-07T00:25:06;3.80;99.90
18091;DHT22;9172;49.948;9.208;2022-12-07T00:27:35;3.80;99.90
18091;DHT22;9172;49.948;9.208;2022-12-07T00:30:05;3.70;99.90
18091;DHT22;9172;49.948;9.208;2022-12-07T00:32:35;3.60;99.90
18091;DHT22;9172;49.948;9.208;2022-12-07T00:35:05;3.60;99.90
18091;DHT22;9172;49.948;9.208;2022-12-07T00:37:33;3.60;99.90
18091;DHT22;9172;49.948;9.208;2022-12-07T00:40:04;3.60;99.90
18091;DHT22;9172;49.948;9.208;2022-12-07T00:42:33;3.70;99.90
18091;DHT22;9172;49.948;9.208;2022-12-07T00:45:03;3.70;99.90
18091;DHT22;9172;49.948;9.208;2022-12-07T00:50:09;3.80;99.90
18091;DHT22;9172;49.948;9.208;2022-12-07T00:52:39;3.80;99.90
18091;DHT22;9172;49.948;9.208;2022-12-07T00:55:09;3.70;99.90
18091;DHT22;9172;49.948;9.208;2022-12-07T00:57:39;3.70;99.90
18091;DHT22;9172;49.948;9.208;2022-12-07T01:00:09;3.80;99.90
18091;DHT22;9172;49.948;9.208;2022-12-07T01:02:38;3.80;99.90
18091;DHT22;9172;49.948;9.208;2022-12-07T01:05:08;3.80;99.90
18091;DHT22;9172;49.948;9.208;2022-12-07T01:07:37;3.80;99.90
18091;DHT22;9172;49.948;9.208;2022-12-07T01:10:07;3.80;99.90
18091;DHT22;9172;49.948;9.208;2022-12-07T01:12:37;3.80;99.90
18091;DHT22;9172;49.948;9.208;2022-12-07T01:15:09;3.90;99.90
18091;DHT22;9172;49.948;9.208;2022-12-07T01:17:40;3.80;99.90
18091;DHT22;9172;49.948;9.208;2022-12-07T01:20:12;3.80;99.90
18091;DHT22;9172;49.948;9.208;2022-12-07T01:22:44;3.80;99.90
18091;DHT22;9172;49.948;9.208;2022-12-07T01:25:13;3.80;99.90
18091;DHT22;9172;49.948;9.208;2022-12-07T01:27:42;3.80;99.90
18091;DHT22;9172;49.948;9.208;2022-12-07T01:30:13;3.90;99.90
18091;DHT22;9172;49.948;9.208;2022-12-07T01:32:42;3.90;99.90
18091;DHT22;9172;49.948;9.208;2022-12-07T01:35:11;3.80;99.90
18091;DHT22;9172;49.948;9.208;2022-12-07T01:37:40;3.80;99.90
18091;DHT22;9172;49.948;9.208;2022-12-07T01:40:12;3.80;99.90
18091;DHT22;9172;49.948;9.208;2022-12-07T01:42:40;3.80;99.90
18091;DHT22;9172;49.948;9.208;2022-12-07T01:45:48;3.80;99.90
18091;DHT22;9172;49.948;9.208;2022-12-07T01:48:18;3.80;99.90
18091;DHT22;9172;49.948;9.208;2022-12-07T01:50:51;3.80;99.90
18091;DHT22;9172;49.948;9.208;2022-12-07T01:53:22;3.80;99.90
18091;DHT22;9172;49.948;9.208;2022-12-07T01:55:53;3.70;99.90
18091;DHT22;9172;49.948;9.208;2022-12-07T01:58:24;3.70;99.90
18091;DHT22;9172;49.948;9.208;2022-12-07T02:00:54;3.70;99.90
18091;DHT22;9172;49.948;9.208;2022-12-07T02:03:29;3.80;99.90
18091;DHT22;9172;49.948;9.208;2022-12-07T02:05:57;3.80;99.90
18091;DHT22;9172;49.948;9.208;2022-12-07T02:08:29;3.80;99.90
18091;DHT22;9172;49.948;9.208;2022-12-07T02:10:58;3.70;99.90
18091;DHT22;9172;49.948;9.208;2022-12-07T02:13:30;3.80;99.90
18091;DHT22;9172;49.948;9.208;2022-12-07T02:18:51;3.80;99.90
18091;DHT22;9172;49.948;9.208;2022-12-07T02:21:26;3.80;99.90
18091;DHT22;9172;49.948;9.208;2022-12-07T02:24:06;3.80;99.90
18091;DHT22;9172;49.948;9.208;2022-12-07T02:26:55;3.80;99.90
18091;DHT22;9172;49.948;9.208;2022-12-07T02:29:26;3.80;99.90
18091;DHT22;9172;49.948;9.208;2022-12-07T02:32:00;3.80;99.90
18091;DHT22;9172;49.948;9.208;2022-12-07T02:34:36;3.80;99.90
18091;DHT22;9172;49.948;9.208;2022-12-07T02:37:08;3.80;99.90
18091;DHT22;9172;49.948;9.208;2022-12-07T02:39:41;3.70;99.90
18091;DHT22;9172;49.948;9.208;2022-12-07T02:42:15;3.70;99.90
18091;DHT22;9172;49.948;9.208;2022-12-07T02:44:46;3.70;99.90
18091;DHT22;9172;49.948;9.208;2022-12-07T02:47:17;3.70;99.90
18091;DHT22;9172;49.948;9.208;2022-12-07T02:49:47;3.70;99.90
18091;DHT22;9172;49.948;9.208;2022-12-07T02:52:18;3.70;99.90
18091;DHT22;9172;49.948;9.208;2022-12-07T02:54:48;3.70;99.90
18091;DHT22;9172;49.948;9.208;2022-12-07T02:57:25;3.70;99.90
18091;DHT22;9172;49.948;9.208;2022-12-07T03:00:00;3.70;99.90
18091;DHT22;9172;49.948;9.208;2022-12-07T03:02:35;3.70;99.90
18091;DHT22;9172;49.948;9.208;2022-12-07T03:05:12;3.70;99.90
18091;DHT22;9172;49.948;9.208;2022-12-07T03:07:53;3.70;99.90
18091;DHT22;9172;49.948;9.208;2022-12-07T03:10:24;3.70;99.90
18091;DHT22;9172;49.948;9.208;2022-12-07T03:12:58;3.70;99.90
18091;DHT22;9172;49.948;9.208;2022-12-07T03:15:31;3.80;99.90
18091;DHT22;9172;49.948;9.208;2022-12-07T03:18:01;3.80;99.90
18091;DHT22;9172;49.948;9.208;2022-12-07T03:20:32;3.80;99.90
18091;DHT22;9172;49.948;9.208;2022-12-07T03:23:05;3.80;99.90
18091;DHT22;9172;49.948;9.208;2022-12-07T03:25:39;3.80;99.90
18091;DHT22;9172;49.948;9.208;2022-12-07T03:28:09;3.80;99.90
18091;DHT22;9172;49.948;9.208;2022-12-07T03:30:42;3.80;99.90
18091;DHT22;9172;49.948;9.208;2022-12-07T03:33:13;3.80;99.90
18091;DHT22;9172;49.948;9.208;2022-12-07T03:35:45;3.80;99.90
18091;DHT22;9172;49.948;9.208;2022-12-07T03:40:57;3.80;99.90
18091;DHT22;9172;49.948;9.208;2022-12-07T03:46:12;3.80;99.90
18091;DHT22;9172;49.948;9.208;2022-12-07T03:48:42;3.80;99.90
18091;DHT22;9172;49.948;9.208;2022-12-07T03:51:16;3.80;99.90
18091;DHT22;9172;49.948;9.208;2022-12-07T03:53:48;3.80;99.90
18091;DHT22;9172;49.948;9.208;2022-12-07T03:56:18;3.80;99.90
18091;DHT22;9172;49.948;9.208;2022-12-07T03:58:49;3.80;99.90
18091;DHT22;9172;49.948;9.208;2022-12-07T04:01:22;3.80;99.90
18091;DHT22;9172;49.948;9.208;2022-12-07T04:03:50;3.80;99.90
18091;DHT22;9172;49.948;9.208;2022-12-07T04:06:20;3.70;99.90
18091;DHT22;9172;49.948;9.208;2022-12-07T04:08:48;3.60;99.90
18091;DHT22;9172;49.948;9.208;2022-12-07T04:11:17;3.60;99.90
18091;DHT22;9172;49.948;9.208;2022-12-07T04:13:46;3.60;99.90
18091;DHT22;9172;49.948;9.208;2022-12-07T04:16:32;3.70;99.90
18091;DHT22;9172;49.948;9.208;2022-12-07T04:19:01;3.70;99.90
18091;DHT22;9172;49.948;9.208;2022-12-07T04:21:30;3.70;99.90
18091;DHT22;9172;49.948;9.208;2022-12-07T04:24:01;3.60;99.90
18091;DHT22;9172;49.948;9.208;2022-12-07T04:26:30;3.60;99.90
18091;DHT22;9172;49.948;9.208;2022-12-07T04:28:59;3.60;99.90
18091;DHT22;9172;49.948;9.208;2022-12-07T04:31:29;3.60;99.90
18091;DHT22;9172;49.948;9.208;2022-12-07T04:33:59;3.60;99.90
18091;DHT22;9172;49.948;9.208;2022-12-07T04:36:28;3.60;99.90
18091;DHT22;9172;49.948;9.208;2022-12-07T04:38:57;3.60;99.90
18091;DHT22;9172;49.948;9.208;2022-12-07T04:41:27;3.60;99.90
18091;DHT22;9172;49.948;9.208;2022-12-07T04:44:00;3.70;99.90
18091;DHT22;9172;49.948;9.208;2022-12-07T04:46:31;3.70;99.90
18091;DHT22;9172;49.948;9.208;2022-12-07T04:49:00;3.70;99.90
18091;DHT22;9172;49.948;9.208;2022-12-07T04:51:30;3.70;99.90
18091;DHT22;9172;49.948;9.208;2022-12-07T04:54:00;3.70;99.90
18091;DHT22;9172;49.948;9.208;2022-12-07T04:56:41;3.80;99.90
18091;DHT22;9172;49.948;9.208;2022-12-07T04:59:10;3.70;99.90
18091;DHT22;9172;49.948;9.208;2022-12-07T05:01:39;3.70;99.90
18091;DHT22;9172;49.948;9.208;2022-12-07T05:04:09;3.70;99.90
18091;DHT22;9172;49.948;9.208;2022-12-07T05:06:38;3.70;99.90
18091;DHT22;9172;49.948;9.208;2022-12-07T05:09:08;3.70;99.90
18091;DHT22;9172;49.948;9.208;2022-12-07T05:11:37;3.70;99.90
18091;DHT22;9172;49.948;9.208;2022-12-07T05:14:08;3.70;99.90
18091;DHT22;9172;49.948;9.208;2022-12-07T05:16:37;3.80;99.90
18091;DHT22;9172;49.948;9.208;2022-12-07T05:19:06;3.80;99.90
18091;DHT22;9172;49.948;9.208;2022-12-07T05:21:36;3.70;99.90
18091;DHT22;9172;49.948;9.208;2022-12-07T05:24:07;3.70;99.90
18091;DHT22;9172;49.948;9.208;2022-12-07T05:26:36;3.70;99.90
18091;DHT22;9172;49.948;9.208;2022-12-07T05:29:04;3.70;99.90
18091;DHT22;9172;49.948;9.208;2022-12-07T05:31:33;3.70;99.90
18091;DHT22;9172;49.948;9.208;2022-12-07T05:34:03;3.70;99.90
18091;DHT22;9172;49.948;9.208;2022-12-07T05:36:31;3.70;99.90
18091;DHT22;9172;49.948;9.208;2022-12-07T05:39:02;3.70;99.90
18091;DHT22;9172;49.948;9.208;2022-12-07T05:41:31;3.80;99.90
18091;DHT22;9172;49.948;9.208;2022-12-07T05:44:20;3.70;99.90
18091;DHT22;9172;49.948;9.208;2022-12-07T05:46:50;3.70;99.90
18091;DHT22;9172;49.948;9.208;2022-12-07T05:49:19;3.70;99.90
18091;DHT22;9172;49.948;9.208;2022-12-07T05:51:48;3.70;99.90
18091;DHT22;9172;49.948;9.208;2022-12-07T05:54:19;3.70;99.90
18091;DHT22;9172;49.948;9.208;2022-12-07T05:56:50;3.70;99.90
18091;DHT22;9172;49.948;9.208;2022-12-07T05:59:21;3.70;99.90
18091;DHT22;9172;49.948;9.208;2022-12-07T06:01:51;3.70;99.90
18091;DHT22;9172;49.948;9.208;2022-12-07T06:04:21;3.70;99.90
18091;DHT22;9172;49.948;9.208;2022-12-07T06:06:50;3.70;99.90
18091;DHT22;9172;49.948;9.208;2022-12-07T06:09:20;3.70;99.90
18091;DHT22;9172;49.948;9.208;2022-12-07T06:11:51;3.70;99.90
18091;DHT22;9172;49.948;9.208;2022-12-07T06:14:37;3.70;99.90
18091;DHT22;9172;49.948;9.208;2022-12-07T06:17:07;3.70;99.90
18091;DHT22;9172;49.948;9.208;2022-12-07T06:19:36;3.80;99.90
18091;DHT22;9172;49.948;9.208;2022-12-07T06:22:05;3.80;99.90
18091;DHT22;9172;49.948;9.208;2022-12-07T06:24:35;3.80;99.90
18091;DHT22;9172;49.948;9.208;2022-12-07T06:27:04;3.80;99.90
18091;DHT22;9172;49.948;9.208;2022-12-07T06:29:34;3.70;99.90
18091;DHT22;9172;49.948;9.208;2022-12-07T06:32:03;3.80;99.90
18091;DHT22;9172;49.948;9.208;2022-12-07T06:34:32;3.80;99.90
18091;DHT22;9172;49.948;9.208;2022-12-07T06:37:01;3.80;99.90
18091;DHT22;9172;49.948;9.208;2022-12-07T06:39:30;3.80;99.90
18091;DHT22;9172;49.948;9.208;2022-12-07T06:42:00;3.80;99.90
18091;DHT22;9172;49.948;9.208;2022-12-07T06:44:28;3.70;99.90
18091;DHT22;9172;49.948;9.208;2022-12-07T06:46:57;3.70;99.90
18091;DHT22;9172;49.948;9.208;2022-12-07T06:49:26;3.70;99.90
18091;DHT22;9172;49.948;9.208;2022-12-07T06:51:54;3.80;99.90
18091;DHT22;9172;49.948;9.208;2022-12-07T06:54:23;3.70;99.90
18091;DHT22;9172;49.948;9.208;2022-12-07T06:56:51;3.70;99.90
18091;DHT22;9172;49.948;9.208;2022-12-07T06:59:21;3.70;99.90
18091;DHT22;9172;49.948;9.208;2022-12-07T07:01:50;3.80;99.90
18091;DHT22;9172;49.948;9.208;2022-12-07T07:04:19;3.80;99.90
18091;DHT22;9172;49.948;9.208;2022-12-07T07:06:48;3.80;99.90
18091;DHT22;9172;49.948;9.208;2022-12-07T07:09:18;3.80;99.90
18091;DHT22;9172;49.948;9.208;2022-12-07T07:11:46;3.80;99.90
18091;DHT22;9172;49.948;9.208;2022-12-07T07:14:15;3.80;99.90
18091;DHT22;9172;49.948;9.208;2022-12-07T07:16:46;3.80;99.90
18091;DHT22;9172;49.948;9.208;2022-12-07T07:19:15;3.80;99.90
18091;DHT22;9172;49.948;9.208;2022-12-07T07:21:43;3.80;99.90
18091;DHT22;9172;49.948;9.208;2022-12-07T07:24:12;3.70;99.90
18091;DHT22;9172;49.948;9.208;2022-12-07T07:26:41;3.70;99.90
18091;DHT22;9172;49.948;9.208;2022-12-07T07:29:09;3.70;99.90
18091;DHT22;9172;49.948;9.208;2022-12-07T07:31:38;3.80;99.90
18091;DHT22;9172;49.948;9.208;2022-12-07T07:34:08;3.80;99.90
18091;DHT22;9172;49.948;9.208;2022-12-07T07:36:37;3.80;99.90
18091;DHT22;9172;49.948;9.208;2022-12-07T07:39:10;3.80;99.90
18091;DHT22;9172;49.948;9.208;2022-12-07T07:41:40;3.80;99.90
18091;DHT22;9172;49.948;9.208;2022-12-07T07:44:10;3.80;99.90
18091;DHT22;9172;49.948;9.208;2022-12-07T07:46:38;3.80;99.90
18091;DHT22;9172;49.948;9.208;2022-12-07T07:49:08;3.90;99.90
18091;DHT22;9172;49.948;9.208;2022-12-07T07:51:38;3.80;99.90
18091;DHT22;9172;49.948;9.208;2022-12-07T07:54:07;3.90;99.90
18091;DHT22;9172;49.948;9.208;2022-12-07T07:56:36;3.90;99.90
18091;DHT22;9172;49.948;9.208;2022-12-07T07:59:04;3.90;99.90
18091;DHT22;9172;49.948;9.208;2022-12-07T08:01:33;3.90;99.90
18091;DHT22;9172;49.948;9.208;2022-12-07T08:04:02;3.90;99.90
18091;DHT22;9172;49.948;9.208;2022-12-07T08:06:30;3.90;99.90
18091;DHT22;9172;49.948;9.208;2022-12-07T08:08:59;3.90;99.90
18091;DHT22;9172;49.948;9.208;2022-12-07T08:11:28;3.90;99.90
18091;DHT22;9172;49.948;9.208;2022-12-07T08:13:57;3.80;99.90
18091;DHT22;9172;49.948;9.208;2022-12-07T08:16:26;3.80;99.90
18091;DHT22;9172;49.948;9.208;2022-12-07T08:18:55;3.70;99.90
18091;DHT22;9172;49.948;9.208;2022-12-07T08:21:24;3.70;99.90
18091;DHT22;9172;49.948;9.208;2022-12-07T08:23:52;3.70;99.90
18091;DHT22;9172;49.948;9.208;2022-12-07T08:26:21;3.80;99.90
18091;DHT22;9172;49.948;9.208;2022-12-07T08:28:52;3.80;99.90
18091;DHT22;9172;49.948;9.208;2022-12-07T08:31:20;3.90;99.90
18091;DHT22;9172;49.948;9.208;2022-12-07T08:33:49;3.80;99.90
18091;DHT22;9172;49.948;9.208;2022-12-07T08:36:18;3.80;99.90
18091;DHT22;9172;49.948;9.208;2022-12-07T08:38:46;3.80;99.90
18091;DHT22;9172;49.948;9.208;2022-12-07T08:41:15;3.80;99.90
18091;DHT22;9172;49.948;9.208;2022-12-07T08:43:44;3.80;99.90
18091;DHT22;9172;49.948;9.208;2022-12-07T08:46:16;3.80;99.90
18091;DHT22;9172;49.948;9.208;2022-12-07T08:48:46;3.80;99.90
18091;DHT22;9172;49.948;9.208;2022-12-07T08:51:15;3.90;99.90
18091;DHT22;9172;49.948;9.208;2022-12-07T08:53:45;3.90;99.90
18091;DHT22;9172;49.948;9.208;2022-12-07T08:56:14;4.00;99.90
18091;DHT22;9172;49.948;9.208;2022-12-07T08:58:43;4.00;99.90
18091;DHT22;9172;49.948;9.208;2022-12-07T09:01:13;4.00;99.90
18091;DHT22;9172;49.948;9.208;2022-12-07T09:03:42;4.00;99.90
18091;DHT22;9172;49.948;9.208;2022-12-07T09:06:12;4.10;99.90
18091;DHT22;9172;49.948;9.208;2022-12-07T09:08:43;4.10;99.90
18091;DHT22;9172;49.948;9.208;2022-12-07T09:11:13;4.10;99.90
18091;DHT22;9172;49.948;9.208;2022-12-07T09:13:41;4.20;99.90
18091;DHT22;9172;49.948;9.208;2022-12-07T09:16:11;4.10;99.90
18091;DHT22;9172;49.948;9.208;2022-12-07T09:18:39;4.10;99.90
18091;DHT22;9172;49.948;9.208;2022-12-07T09:21:09;4.10;99.90
18091;DHT22;9172;49.948;9.208;2022-12-07T09:23:38;4.00;99.90
18091;DHT22;9172;49.948;9.208;2022-12-07T09:26:06;4.10;99.90
18091;DHT22;9172;49.948;9.208;2022-12-07T09:28:35;4.10;99.90
18091;DHT22;9172;49.948;9.208;2022-12-07T09:31:05;4.10;99.90
18091;DHT22;9172;49.948;9.208;2022-12-07T09:33:35;4.10;99.90
18091;DHT22;9172;49.948;9.208;2022-12-07T09:36:05;4.20;99.90
18091;DHT22;9172;49.948;9.208;2022-12-07T09:38:33;4.20;99.90
18091;DHT22;9172;49.948;9.208;2022-12-07T09:41:06;4.20;99.90
18091;DHT22;9172;49.948;9.208;2022-12-07T09:43:36;4.20;99.90
18091;DHT22;9172;49.948;9.208;2022-12-07T09:46:08;4.30;99.90
18091;DHT22;9172;49.948;9.208;2022-12-07T09:48:38;4.30;99.90
18091;DHT22;9172;49.948;9.208;2022-12-07T09:51:14;4.30;99.90
18091;DHT22;9172;49.948;9.208;2022-12-07T09:53:44;4.20;99.90
18091;DHT22;9172;49.948;9.208;2022-12-07T09:56:14;4.30;99.90
18091;DHT22;9172;49.948;9.208;2022-12-07T09:58:43;4.30;99.90
18091;DHT22;9172;49.948;9.208;2022-12-07T10:01:15;4.30;99.90
18091;DHT22;9172;49.948;9.208;2022-12-07T10:03:47;4.30;99.90
18091;DHT22;9172;49.948;9.208;2022-12-07T10:06:16;4.30;99.90
18091;DHT22;9172;49.948;9.208;2022-12-07T10:08:45;4.30;99.90
18091;DHT22;9172;49.948;9.208;2022-12-07T10:11:14;4.30;99.90
18091;DHT22;9172;49.948;9.208;2022-12-07T10:13:46;4.30;99.90
18091;DHT22;9172;49.948;9.208;2022-12-07T10:16:37;4.40;99.90
18091;DHT22;9172;49.948;9.208;2022-12-07T10:19:24;4.40;99.90
18091;DHT22;9172;49.948;9.208;2022-12-07T10:22:07;4.40;99.90
18091;DHT22;9172;49.948;9.208;2022-12-07T10:24:36;4.40;99.90
18091;DHT22;9172;49.948;9.208;2022-12-07T10:27:17;4.40;99.90
18091;DHT22;9172;49.948;9.208;2022-12-07T10:29:49;4.40;99.90
18091;DHT22;9172;49.948;9.208;2022-12-07T10:32:33;4.50;99.90
18091;DHT22;9172;49.948;9.208;2022-12-07T10:35:26;4.10;99.90
18091;DHT22;9172;49.948;9.208;2022-12-07T10:37:56;4.50;99.90
18091;DHT22;9172;49.948;9.208;2022-12-07T10:40:34;4.50;99.90
18091;DHT22;9172;49.948;9.208;2022-12-07T10:43:05;4.50;99.90
18091;DHT22;9172;49.948;9.208;2022-12-07T10:45:36;4.60;99.90
18091;DHT22;9172;49.948;9.208;2022-12-07T10:48:10;4.60;99.90
18091;DHT22;9172;49.948;9.208;2022-12-07T10:50:51;4.60;99.90
18091;DHT22;9172;49.948;9.208;2022-12-07T10:53:46;4.70;99.90
18091;DHT22;9172;49.948;9.208;2022-12-07T10:56:26;4.60;99.90
18091;DHT22;9172;49.948;9.208;2022-12-07T10:59:02;4.60;99.90
18091;DHT22;9172;49.948;9.208;2022-12-07T11:01:34;4.60;99.90
18091;DHT22;9172;49.948;9.208;2022-12-07T11:04:17;4.60;99.90
18091;DHT22;9172;49.948;9.208;2022-12-07T11:09:39;4.60;99.90
18091;DHT22;9172;49.948;9.208;2022-12-07T11:12:12;4.60;99.90
18091;DHT22;9172;49.948;9.208;2022-12-07T11:14:44;4.60;99.90
18091;DHT22;9172;49.948;9.208;2022-12-07T11:17:17;4.60;99.90
18091;DHT22;9172;49.948;9.208;2022-12-07T11:19:52;4.60;99.90
18091;DHT22;9172;49.948;9.208;2022-12-07T11:22:26;4.70;99.90
18091;DHT22;9172;49.948;9.208;2022-12-07T11:25:00;4.70;99.90
18091;DHT22;9172;49.948;9.208;2022-12-07T11:27:33;4.70;99.90
18091;DHT22;9172;49.948;9.208;2022-12-07T11:33:04;4.70;99.90
18091;DHT22;9172;49.948;9.208;2022-12-07T11:35:44;4.70;99.90
18091;DHT22;9172;49.948;9.208;2022-12-07T11:38:16;4.70;99.90
18091;DHT22;9172;49.948;9.208;2022-12-07T11:40:47;4.80;99.90
18091;DHT22;9172;49.948;9.208;2022-12-07T11:43:21;4.80;99.90
18091;DHT22;9172;49.948;9.208;2022-12-07T11:45:56;4.80;99.90
18091;DHT22;9172;49.948;9.208;2022-12-07T11:48:29;4.80;99.90
18091;DHT22;9172;49.948;9.208;2022-12-07T11:51:00;4.80;99.90
18091;DHT22;9172;49.948;9.208;2022-12-07T11:53:33;4.90;99.90
18091;DHT22;9172;49.948;9.208;2022-12-07T11:56:07;4.90;99.90
18091;DHT22;9172;49.948;9.208;2022-12-07T11:58:49;4.90;99.90
18091;DHT22;9172;49.948;9.208;2022-12-07T12:01:35;4.90;99.90
18091;DHT22;9172;49.948;9.208;2022-12-07T12:04:05;5.00;99.90
18091;DHT22;9172;49.948;9.208;2022-12-07T12:06:34;5.00;99.90
18091;DHT22;9172;49.948;9.208;2022-12-07T12:09:05;5.00;99.90
18091;DHT22;9172;49.948;9.208;2022-12-07T12:11:54;5.10;99.90
18091;DHT22;9172;49.948;9.208;2022-12-07T12:14:32;5.10;99.90
18091;DHT22;9172;49.948;9.208;2022-12-07T12:17:17;5.10;99.90
18091;DHT22;9172;49.948;9.208;2022-12-07T12:19:58;5.20;99.90
18091;DHT22;9172;49.948;9.208;2022-12-07T12:22:32;5.20;99.90
18091;DHT22;9172;49.948;9.208;2022-12-07T12:25:06;5.20;99.90
18091;DHT22;9172;49.948;9.208;2022-12-07T12:27:37;5.10;99.90
18091;DHT22;9172;49.948;9.208;2022-12-07T12:30:24;5.10;99.90
18091;DHT22;9172;49.948;9.208;2022-12-07T12:32:53;5.10;99.90
18091;DHT22;9172;49.948;9.208;2022-12-07T12:35:36;5.10;99.90
18091;DHT22;9172;49.948;9.208;2022-12-07T12:38:28;5.10;99.90
18091;DHT22;9172;49.948;9.208;2022-12-07T12:40:58;5.10;99.90
18091;DHT22;9172;49.948;9.208;2022-12-07T12:43:46;5.10;99.90
18091;DHT22;9172;49.948;9.208;2022-12-07T12:46:53;5.10;99.90
18091;DHT22;9172;49.948;9.208;2022-12-07T12:53:13;5.10;99.90
18091;DHT22;9172;49.948;9.208;2022-12-07T12:56:23;5.10;99.90
18091;DHT22;9172;49.948;9.208;2022-12-07T12:59:25;5.10;99.90
18091;DHT22;9172;49.948;9.208;2022-12-07T13:02:20;5.20;99.90
18091;DHT22;9172;49.948;9.208;2022-12-07T13:04:55;5.20;99.90
18091;DHT22;9172;49.948;9.208;2022-12-07T13:07:52;5.30;99.90
18091;DHT22;9172;49.948;9.208;2022-12-07T13:10:43;5.30;99.90
18091;DHT22;9172;49.948;9.208;2022-12-07T13:16:37;5.30;99.90
18091;DHT22;9172;49.948;9.208;2022-12-07T13:22:52;5.30;99.90
18091;DHT22;9172;49.948;9.208;2022-12-07T13:25:37;5.30;99.90
18091;DHT22;9172;49.948;9.208;2022-12-07T13:28:13;5.30;99.90
18091;DHT22;9172;49.948;9.208;2022-12-07T13:30:46;5.30;99.90
18091;DHT22;9172;49.948;9.208;2022-12-07T13:33:18;5.30;99.90
18091;DHT22;9172;49.948;9.208;2022-12-07T13:35:47;5.30;99.90
18091;DHT22;9172;49.948;9.208;2022-12-07T13:38:25;5.40;99.90
18091;DHT22;9172;49.948;9.208;2022-12-07T13:41:13;5.40;99.90
18091;DHT22;9172;49.948;9.208;2022-12-07T13:43:48;5.40;99.90
18091;DHT22;9172;49.948;9.208;2022-12-07T13:46:20;5.40;99.90
18091;DHT22;9172;49.948;9.208;2022-12-07T13:48:51;5.40;99.90
18091;DHT22;9172;49.948;9.208;2022-12-07T13:51:23;5.40;99.90
18091;DHT22;9172;49.948;9.208;2022-12-07T13:54:00;5.40;99.90
18091;DHT22;9172;49.948;9.208;2022-12-07T13:56:34;5.40;99.90
18091;DHT22;9172;49.948;9.208;2022-12-07T13:59:12;5.40;99.90
18091;DHT22;9172;49.948;9.208;2022-12-07T14:01:42;5.40;99.90
18091;DHT22;9172;49.948;9.208;2022-12-07T14:04:32;5.30;99.90
18091;DHT22;9172;49.948;9.208;2022-12-07T14:07:16;5.30;99.90
18091;DHT22;9172;49.948;9.208;2022-12-07T14:09:53;5.30;99.90
18091;DHT22;9172;49.948;9.208;2022-12-07T14:12:23;5.30;99.90
18091;DHT22;9172;49.948;9.208;2022-12-07T14:14:52;5.30;99.90
18091;DHT22;9172;49.948;9.208;2022-12-07T14:17:22;5.30;99.90
18091;DHT22;9172;49.948;9.208;2022-12-07T14:19:52;5.40;99.90
18091;DHT22;9172;49.948;9.208;2022-12-07T14:22:29;5.40;99.90
18091;DHT22;9172;49.948;9.208;2022-12-07T14:25:18;5.40;99.90
18091;DHT22;9172;49.948;9.208;2022-12-07T14:27:55;5.40;99.90
18091;DHT22;9172;49.948;9.208;2022-12-07T14:30:27;5.30;99.90
18091;DHT22;9172;49.948;9.208;2022-12-07T14:32:59;5.30;99.90
18091;DHT22;9172;49.948;9.208;2022-12-07T14:35:28;5.20;99.90
18091;DHT22;9172;49.948;9.208;2022-12-07T14:37:58;5.20;99.90
18091;DHT22;9172;49.948;9.208;2022-12-07T14:40:29;5.10;99.90
18091;DHT22;9172;49.948;9.208;2022-12-07T14:43:00;5.00;99.90
18091;DHT22;9172;49.948;9.208;2022-12-07T14:45:30;4.90;99.90
18091;DHT22;9172;49.948;9.208;2022-12-07T14:47:59;4.80;99.90
18091;DHT22;9172;49.948;9.208;2022-12-07T14:50:29;4.80;99.90
18091;DHT22;9172;49.948;9.208;2022-12-07T14:52:59;4.80;99.90
18091;DHT22;9172;49.948;9.208;2022-12-07T14:58:12;4.80;99.90
18091;DHT22;9172;49.948;9.208;2022-12-07T15:00:42;4.70;99.90
18091;DHT22;9172;49.948;9.208;2022-12-07T15:03:15;4.70;99.90
18091;DHT22;9172;49.948;9.208;2022-12-07T15:05:45;4.70;99.90
18091;DHT22;9172;49.948;9.208;2022-12-07T15:08:14;4.70;99.90
18091;DHT22;9172;49.948;9.208;2022-12-07T15:10:48;4.60;99.90
18091;DHT22;9172;49.948;9.208;2022-12-07T15:13:16;4.70;99.90
18091;DHT22;9172;49.948;9.208;2022-12-07T15:16:04;4.70;99.90
18091;DHT22;9172;49.948;9.208;2022-12-07T15:18:33;4.70;99.90
18091;DHT22;9172;49.948;9.208;2022-12-07T15:21:02;4.70;99.90
18091;DHT22;9172;49.948;9.208;2022-12-07T15:23:32;4.70;99.90
18091;DHT22;9172;49.948;9.208;2022-12-07T15:26:00;4.80;99.90
18091;DHT22;9172;49.948;9.208;2022-12-07T15:28:29;4.80;99.90
18091;DHT22;9172;49.948;9.208;2022-12-07T15:31:01;4.80;99.90
18091;DHT22;9172;49.948;9.208;2022-12-07T15:33:29;4.70;99.90
18091;DHT22;9172;49.948;9.208;2022-12-07T15:35:59;4.70;99.90
18091;DHT22;9172;49.948;9.208;2022-12-07T15:38:28;4.70;99.90
18091;DHT22;9172;49.948;9.208;2022-12-07T15:40:57;4.80;99.90
18091;DHT22;9172;49.948;9.208;2022-12-07T15:43:27;4.80;99.90
18091;DHT22;9172;49.948;9.208;2022-12-07T15:46:14;4.80;99.90
18091;DHT22;9172;49.948;9.208;2022-12-07T15:48:43;4.80;99.90
18091;DHT22;9172;49.948;9.208;2022-12-07T15:51:13;4.80;99.90
18091;DHT22;9172;49.948;9.208;2022-12-07T15:53:49;4.70;99.90
18091;DHT22;9172;49.948;9.208;2022-12-07T15:56:20;4.70;99.90
18091;DHT22;9172;49.948;9.208;2022-12-07T15:58:48;4.70;99.90
18091;DHT22;9172;49.948;9.208;2022-12-07T16:01:19;4.70;99.90
18091;DHT22;9172;49.948;9.208;2022-12-07T16:03:48;4.70;99.90
18091;DHT22;9172;49.948;9.208;2022-12-07T16:06:17;4.80;99.90
18091;DHT22;9172;49.948;9.208;2022-12-07T16:08:50;4.70;99.90
18091;DHT22;9172;49.948;9.208;2022-12-07T16:11:19;4.70;99.90
18091;DHT22;9172;49.948;9.208;2022-12-07T16:13:47;4.70;99.90
18091;DHT22;9172;49.948;9.208;2022-12-07T16:16:18;4.60;99.90
18091;DHT22;9172;49.948;9.208;2022-12-07T16:18:50;4.40;99.90
18091;DHT22;9172;49.948;9.208;2022-12-07T16:21:19;4.30;99.90
18091;DHT22;9172;49.948;9.208;2022-12-07T16:23:51;4.20;99.90
18091;DHT22;9172;49.948;9.208;2022-12-07T16:26:21;4.10;99.90
18091;DHT22;9172;49.948;9.208;2022-12-07T16:28:50;4.10;99.90
18091;DHT22;9172;49.948;9.208;2022-12-07T16:31:23;4.10;99.90
18091;DHT22;9172;49.948;9.208;2022-12-07T16:33:54;4.20;99.90
18091;DHT22;9172;49.948;9.208;2022-12-07T16:36:24;4.20;99.90
18091;DHT22;9172;49.948;9.208;2022-12-07T16:38:57;4.30;99.90
18091;DHT22;9172;49.948;9.208;2022-12-07T16:41:26;4.40;99.90
18091;DHT22;9172;49.948;9.208;2022-12-07T16:43:58;4.50;99.90
18091;DHT22;9172;49.948;9.208;2022-12-07T16:46:28;4.50;99.90
18091;DHT22;9172;49.948;9.208;2022-12-07T16:48:57;4.50;99.90
18091;DHT22;9172;49.948;9.208;2022-12-07T16:51:27;4.60;99.90
18091;DHT22;9172;49.948;9.208;2022-12-07T16:53:59;4.60;99.90
18091;DHT22;9172;49.948;9.208;2022-12-07T16:56:29;4.60;99.90
18091;DHT22;9172;49.948;9.208;2022-12-07T16:58:59;4.60;99.90
18091;DHT22;9172;49.948;9.208;2022-12-07T17:01:28;4.60;99.90
18091;DHT22;9172;49.948;9.208;2022-12-07T17:03:58;4.60;99.90
18091;DHT22;9172;49.948;9.208;2022-12-07T17:06:28;4.60;99.90